createdAt,value
2019-06-07T00:04:26.594Z,18.87
2019-06-07T00:09:29.310Z,18.79
2019-06-07T00:14:32.072Z,18.54
2019-06-07T00:19:35.002Z,18.55
2019-06-07T00:24:37.745Z,18.59
2019-06-07T00:29:40.464Z,18.65
2019-06-07T00:34:43.206Z,18.58
2019-06-07T00:39:45.922Z,18.33
2019-06-07T00:44:48.694Z,18.06
2019-06-07T00:49:51.428Z,17.93
2019-06-07T00:54:54.173Z,18.00
2019-06-07T00:59:56.878Z,18.11
2019-06-07T01:04:59.606Z,18.17
2019-06-07T01:10:02.449Z,18.12
2019-06-07T01:15:07.596Z,18.05
2019-06-07T01:20:11.320Z,17.94
2019-06-07T01:25:15.637Z,17.94
2019-06-07T01:30:22.770Z,17.92
2019-06-07T01:35:25.477Z,17.72
2019-06-07T01:40:32.246Z,17.58
2019-06-07T01:45:33.236Z,17.37
2019-06-07T01:50:35.986Z,17.16
2019-06-07T01:55:38.712Z,17.01
2019-06-07T02:00:41.439Z,17.00
2019-06-07T02:05:44.156Z,16.86
2019-06-07T02:10:46.865Z,16.67
2019-06-07T02:15:49.579Z,16.83
2019-06-07T02:20:52.293Z,16.87
2019-06-07T02:25:55.098Z,16.70
2019-06-07T02:31:00.573Z,16.74
2019-06-07T02:36:02.596Z,16.87
2019-06-07T02:41:05.403Z,16.41
2019-06-07T02:46:30.556Z,16.26
2019-06-07T02:51:32.745Z,16.23
2019-06-07T02:56:44.466Z,16.33
2019-06-07T03:01:41.339Z,16.28
2019-06-07T03:06:44.017Z,16.04
2019-06-07T03:11:51.126Z,16.03
2019-06-07T03:17:03.356Z,16.35
2019-06-07T03:22:06.152Z,16.32
2019-06-07T03:27:34.973Z,16.33
2019-06-07T03:32:13.547Z,16.41
2019-06-07T03:37:16.295Z,16.54
2019-06-07T03:42:19.023Z,16.56
2019-06-07T03:47:24.005Z,16.65
2019-06-07T03:52:27.456Z,16.70
2019-06-07T03:57:46.334Z,16.71
2019-06-07T04:02:38.619Z,16.59
2019-06-07T04:07:44.187Z,16.62
2019-06-07T04:12:44.703Z,16.85
2019-06-07T04:18:01.460Z,16.88
2019-06-07T04:22:53.746Z,17.01
2019-06-07T04:27:56.616Z,17.06
2019-06-07T04:32:59.507Z,16.56
2019-06-07T04:38:02.321Z,17.09
2019-06-07T04:43:06.139Z,17.32
2019-06-07T04:48:09.096Z,17.56
2019-06-07T04:53:11.849Z,17.81
2019-06-07T04:58:14.576Z,18.02
2019-06-07T05:03:17.330Z,18.09
2019-06-07T05:08:28.231Z,18.25
2019-06-07T05:13:24.738Z,18.34
2019-06-07T05:18:36.348Z,18.36
2019-06-07T05:24:05.942Z,18.65
2019-06-07T05:28:49.104Z,19.07
2019-06-07T05:34:03.033Z,19.50
2019-06-07T05:39:07.857Z,19.61
2019-06-07T05:44:13.085Z,19.38
2019-06-07T05:49:16.032Z,19.71
2019-06-07T05:54:18.814Z,19.82
2019-06-07T05:59:21.616Z,19.86
2019-06-07T06:04:24.332Z,19.74
2019-06-07T06:09:27.501Z,19.63
2019-06-07T06:14:30.426Z,19.80
2019-06-07T06:19:33.143Z,20.04
2019-06-07T06:24:37.178Z,19.95
2019-06-07T06:29:41.822Z,20.19
2019-06-07T06:34:49.353Z,20.26
2019-06-07T06:39:50.921Z,20.44
2019-06-07T06:44:54.300Z,20.70
2019-06-07T06:49:58.511Z,20.78
2019-06-07T06:55:01.632Z,20.52
2019-06-07T07:00:08.083Z,20.81
2019-06-07T07:05:11.674Z,20.81
2019-06-07T07:10:24.847Z,21.37
2019-06-07T07:15:27.806Z,21.57
2019-06-07T07:20:30.514Z,21.51
2019-06-07T07:25:33.240Z,21.35
2019-06-07T07:30:44.574Z,21.87
2019-06-07T07:36:14.019Z,21.21
2019-06-07T07:41:15.095Z,21.17
2019-06-07T07:46:03.052Z,21.10
2019-06-07T07:51:03.384Z,21.63
2019-06-07T07:56:06.777Z,21.55
2019-06-07T08:01:11.254Z,21.59
2019-06-07T08:06:14.243Z,21.98
2019-06-07T08:11:16.962Z,22.22
2019-06-07T08:16:19.758Z,22.20
2019-06-07T08:21:26.560Z,22.22
2019-06-07T08:26:29.058Z,22.38
2019-06-07T08:31:31.770Z,22.50
2019-06-07T08:36:42.003Z,22.54
2019-06-07T08:41:54.159Z,22.45
2019-06-07T08:46:45.038Z,22.49
2019-06-07T08:51:47.769Z,22.71
2019-06-07T08:56:53.628Z,23.21
2019-06-07T09:01:59.724Z,23.72
2019-06-07T09:07:09.103Z,23.90
2019-06-07T09:12:10.704Z,23.44
2019-06-07T09:17:12.320Z,23.25
2019-06-07T09:22:14.477Z,23.75
2019-06-07T09:27:17.308Z,24.09
2019-06-07T09:32:20.031Z,24.00
2019-06-07T09:38:03.517Z,23.59
2019-06-07T09:42:27.520Z,23.64
2019-06-07T09:47:32.793Z,23.28
2019-06-07T09:52:57.340Z,24.11
2019-06-07T09:57:42.059Z,24.36
2019-06-07T10:02:44.917Z,24.56
2019-06-07T10:08:02.327Z,24.68
2019-06-07T10:12:53.696Z,24.02
2019-06-07T10:17:56.461Z,24.54
2019-06-07T10:22:59.543Z,24.38
2019-06-07T10:28:03.720Z,24.27
2019-06-07T10:33:07.023Z,24.16
2019-06-07T10:38:10.725Z,24.08
2019-06-07T10:43:14.522Z,23.87
2019-06-07T10:48:17.618Z,24.19
2019-06-07T10:53:20.349Z,23.99
2019-06-07T10:58:23.114Z,24.03
2019-06-07T11:03:25.852Z,24.80
2019-06-07T11:08:28.582Z,25.11
2019-06-07T11:13:31.484Z,24.92
2019-06-07T11:18:34.202Z,25.23
2019-06-07T11:23:37.023Z,25.08
2019-06-07T11:28:39.841Z,24.97
2019-06-07T11:33:42.573Z,24.96
2019-06-07T11:38:45.391Z,25.11
2019-06-07T11:43:48.130Z,25.19
2019-06-07T11:48:50.913Z,25.18
2019-06-07T11:53:53.700Z,25.52
2019-06-07T11:58:56.494Z,25.77
2019-06-07T12:03:59.315Z,25.19
2019-06-07T12:09:02.045Z,25.64
2019-06-07T12:14:05.336Z,25.59
2019-06-07T12:19:09.544Z,24.89
2019-06-07T12:24:12.521Z,25.11
2019-06-07T12:29:15.263Z,25.06
2019-06-07T12:34:17.984Z,25.17
2019-06-07T12:39:20.732Z,25.26
2019-06-07T12:44:23.461Z,25.74
2019-06-07T12:49:26.173Z,26.19
2019-06-07T12:54:28.915Z,26.45
2019-06-07T12:59:31.644Z,26.57
2019-06-07T13:04:34.363Z,26.59
2019-06-07T13:09:37.084Z,26.65
2019-06-07T13:14:39.809Z,26.88
2019-06-07T13:19:42.552Z,26.60
2019-06-07T13:24:45.274Z,26.97
2019-06-07T13:29:48.006Z,27.46
2019-06-07T13:34:50.759Z,27.42
2019-06-07T13:39:53.482Z,27.56
2019-06-07T13:44:56.278Z,27.01
2019-06-07T13:49:59.100Z,27.26
2019-06-07T13:55:02.475Z,27.50
2019-06-07T14:00:10.850Z,27.80
2019-06-07T14:05:13.998Z,27.46
2019-06-07T14:10:16.744Z,27.25
2019-06-07T14:15:20.525Z,26.98
2019-06-07T14:20:26.756Z,27.24
2019-06-07T14:25:29.371Z,27.81
2019-06-07T14:30:32.749Z,27.93
2019-06-07T14:35:35.571Z,27.66
2019-06-07T14:40:40.133Z,27.31
2019-06-07T14:45:42.902Z,27.83
2019-06-07T14:50:45.649Z,27.78
2019-06-07T14:55:48.374Z,27.87
2019-06-07T15:00:51.084Z,28.23
2019-06-07T15:05:53.882Z,28.23
2019-06-07T15:10:56.654Z,28.52
2019-06-07T15:15:59.367Z,28.58
2019-06-07T15:21:02.424Z,29.08
2019-06-07T15:26:05.217Z,28.90
2019-06-07T15:31:07.945Z,29.01
2019-06-07T15:36:10.667Z,28.18
2019-06-07T15:41:13.374Z,28.38
2019-06-07T15:46:16.157Z,28.05
2019-06-07T15:51:18.940Z,27.50
2019-06-07T15:56:21.656Z,28.25
2019-06-07T16:01:24.369Z,28.59
2019-06-07T16:06:27.102Z,29.20
2019-06-07T16:11:30.356Z,29.36
2019-06-07T16:16:33.096Z,29.35
2019-06-07T16:21:35.827Z,29.32
2019-06-07T16:26:38.548Z,29.00
2019-06-07T16:31:41.261Z,28.80
2019-06-07T16:36:44.508Z,28.27
2019-06-07T16:41:48.954Z,28.15
2019-06-07T16:46:51.770Z,28.39
2019-06-07T16:52:02.573Z,28.38
2019-06-07T16:57:05.305Z,28.33
2019-06-07T17:02:08.014Z,28.00
2019-06-07T17:07:10.727Z,27.82
2019-06-07T17:12:13.441Z,27.71
2019-06-07T17:17:17.081Z,27.95
2019-06-07T17:22:19.878Z,27.95
2019-06-07T17:27:22.622Z,27.82
2019-06-07T17:32:25.362Z,27.81
2019-06-07T17:37:28.160Z,28.07
2019-06-07T17:42:30.900Z,28.08
2019-06-07T17:47:33.616Z,27.89
2019-06-07T17:52:36.329Z,27.30
2019-06-07T17:57:39.061Z,27.20
2019-06-07T18:02:42.632Z,27.19
2019-06-07T18:07:50.055Z,27.34
2019-06-07T18:12:53.042Z,27.38
2019-06-07T18:17:56.958Z,27.26
2019-06-07T18:23:03.940Z,27.02
2019-06-07T18:28:07.048Z,26.88
2019-06-07T18:33:09.791Z,27.05
2019-06-07T18:38:12.503Z,27.07
2019-06-07T18:43:15.222Z,27.01
2019-06-07T18:48:17.926Z,26.95
2019-06-07T18:53:20.659Z,26.73
2019-06-07T18:58:23.398Z,26.61
2019-06-07T19:03:26.117Z,26.53
2019-06-07T19:08:28.927Z,26.45
2019-06-07T19:13:31.985Z,26.36
2019-06-07T19:18:34.710Z,24.68
2019-06-07T19:23:37.445Z,22.12
2019-06-07T19:28:40.194Z,21.37
2019-06-07T19:33:49.158Z,21.19
2019-06-07T19:38:47.567Z,21.05
2019-06-07T19:43:50.334Z,20.90
2019-06-07T19:48:54.488Z,20.86
2019-06-07T19:53:57.709Z,20.92
2019-06-07T19:59:01.704Z,20.76
2019-06-07T20:04:04.668Z,20.79
2019-06-07T20:09:07.595Z,20.68
2019-06-07T20:14:10.535Z,20.68
2019-06-07T20:19:13.303Z,20.65
2019-06-07T20:24:26.471Z,20.68
2019-06-07T20:29:25.720Z,20.64
2019-06-07T20:34:25.655Z,20.55
2019-06-07T20:39:28.633Z,20.52
2019-06-07T20:44:31.440Z,20.50
2019-06-07T20:49:34.531Z,20.44
2019-06-07T20:54:37.388Z,20.31
2019-06-07T20:59:40.372Z,20.26
2019-06-07T21:11:07.795Z,20.35
2019-06-07T21:16:10.734Z,20.34
2019-06-07T21:21:13.587Z,20.20
2019-06-07T21:26:16.463Z,20.03
2019-06-07T21:31:19.336Z,19.94
2019-06-07T21:36:22.111Z,19.81
2019-06-07T21:41:24.896Z,19.75
2019-06-07T21:46:27.763Z,19.68
2019-06-07T21:51:30.676Z,19.67
2019-06-07T21:56:33.587Z,19.58
2019-06-07T22:01:36.873Z,19.56
2019-06-07T22:06:39.902Z,19.65
2019-06-07T22:11:42.926Z,19.65
2019-06-07T22:16:46.377Z,19.66
2019-06-07T22:22:02.119Z,19.69
2019-06-07T22:26:54.509Z,19.67
2019-06-07T22:32:00.080Z,19.63
2019-06-07T22:37:23.634Z,19.62
2019-06-07T22:42:28.938Z,19.62
2019-06-07T22:47:38.032Z,19.57
2019-06-07T22:52:42.220Z,19.51
2019-06-07T22:57:58.296Z,19.47
2019-06-07T23:03:01.030Z,19.34
2019-06-07T23:08:05.346Z,19.08
2019-06-07T23:13:09.859Z,18.93
2019-06-07T23:18:13.460Z,18.90
2019-06-07T23:23:17.305Z,18.88
2019-06-07T23:34:46.094Z,18.79
2019-06-07T23:39:49.513Z,18.83
2019-06-07T23:44:52.369Z,18.91
2019-06-07T23:49:58.081Z,18.89
2019-06-07T23:55:00.896Z,18.91
